createdAt,value
2023-05-14T00:01:23.455Z,8.90
2023-05-14T00:03:49.918Z,9.43
2023-05-14T00:06:16.357Z,8.02
2023-05-14T00:08:42.928Z,8.77
2023-05-14T00:11:09.447Z,8.82
2023-05-14T00:13:36.297Z,11.13
2023-05-14T00:16:02.752Z,13.18
2023-05-14T00:18:29.210Z,9.05
2023-05-14T00:20:55.850Z,10.23
2023-05-14T00:23:22.684Z,9.15
2023-05-14T00:25:49.343Z,10.45
2023-05-14T00:28:15.994Z,9.68
2023-05-14T00:30:42.487Z,10.15
2023-05-14T00:33:08.999Z,11.77
2023-05-14T00:35:36.629Z,10.90
2023-05-14T00:38:03.689Z,10.85
2023-05-14T00:40:30.679Z,11.82
2023-05-14T00:42:57.098Z,10.98
2023-05-14T00:45:23.610Z,11.88
2023-05-14T00:47:54.925Z,12.90
2023-05-14T00:50:21.724Z,13.77
2023-05-14T00:52:48.912Z,12.50
2023-05-14T00:55:16.675Z,13.05
2023-05-14T00:57:43.817Z,14.00
2023-05-14T01:00:10.913Z,13.45
2023-05-14T01:02:37.472Z,14.25
2023-05-14T01:05:04.447Z,13.80
2023-05-14T01:07:49.241Z,13.55
2023-05-14T01:10:25.218Z,15.20
2023-05-14T01:13:04.428Z,15.68
2023-05-14T01:15:32.283Z,14.95
2023-05-14T01:18:09.464Z,15.38
2023-05-14T01:20:36.557Z,14.95
2023-05-14T01:23:03.386Z,14.73
2023-05-14T01:25:31.555Z,17.27
2023-05-14T01:28:17.908Z,15.27
2023-05-14T01:30:51.382Z,14.32
2023-05-14T01:33:19.625Z,13.30
2023-05-14T01:35:46.492Z,14.40
2023-05-14T01:38:20.643Z,15.73
2023-05-14T01:40:48.272Z,14.50
2023-05-14T01:43:16.013Z,16.35
2023-05-14T01:45:43.754Z,14.43
2023-05-14T01:48:10.375Z,19.38
2023-05-14T01:50:36.939Z,18.42
2023-05-14T01:53:03.414Z,17.40
2023-05-14T01:55:29.845Z,18.23
2023-05-14T01:57:56.283Z,17.52
2023-05-14T02:00:24.738Z,16.70
2023-05-14T02:02:51.715Z,16.83
2023-05-14T02:05:18.728Z,15.75
2023-05-14T02:07:46.189Z,14.32
2023-05-14T02:10:12.680Z,13.38
2023-05-14T02:12:39.073Z,12.60
2023-05-14T02:15:06.072Z,13.80
2023-05-14T02:17:32.577Z,13.02
2023-05-14T02:20:00.144Z,13.48
2023-05-14T02:22:26.694Z,14.55
2023-05-14T02:24:53.105Z,13.23
2023-05-14T02:27:21.860Z,13.20
2023-05-14T02:29:48.299Z,12.43
2023-05-14T02:32:14.696Z,13.15
2023-05-14T02:34:42.238Z,14.10
2023-05-14T02:37:08.650Z,20.15
2023-05-14T02:39:35.227Z,18.38
2023-05-14T02:42:03.828Z,16.48
2023-05-14T02:44:31.855Z,15.98
2023-05-14T02:46:58.292Z,16.38
2023-05-14T02:49:24.800Z,17.40
2023-05-14T02:51:54.348Z,19.55
2023-05-14T02:54:20.768Z,16.80
2023-05-14T02:56:47.258Z,15.13
2023-05-14T02:59:13.856Z,12.90
2023-05-14T03:01:40.670Z,12.30
2023-05-14T03:04:07.721Z,13.32
2023-05-14T03:06:34.132Z,16.10
2023-05-14T03:09:00.647Z,14.73
2023-05-14T03:11:27.537Z,14.60
2023-05-14T03:13:53.919Z,17.02
2023-05-14T03:16:20.320Z,16.40
2023-05-14T03:18:46.738Z,15.40
2023-05-14T03:21:13.131Z,13.52
2023-05-14T03:23:39.648Z,13.13
2023-05-14T03:26:06.376Z,13.70
2023-05-14T03:28:32.827Z,14.80
2023-05-14T03:30:59.718Z,16.15
2023-05-14T03:33:26.207Z,20.63
2023-05-14T03:35:52.645Z,17.73
2023-05-14T03:38:19.032Z,16.77
2023-05-14T03:40:45.621Z,15.90
2023-05-14T03:43:12.010Z,15.80
2023-05-14T03:45:38.652Z,19.05
2023-05-14T03:48:05.614Z,17.13
2023-05-14T03:50:32.182Z,16.88
2023-05-14T03:52:58.774Z,20.08
2023-05-14T03:55:25.669Z,20.88
2023-05-14T03:57:52.195Z,17.63
2023-05-14T04:00:18.986Z,19.63
2023-05-14T04:02:45.511Z,19.25
2023-05-14T04:05:11.982Z,20.27
2023-05-14T04:07:38.384Z,18.13
2023-05-14T04:10:05.694Z,17.35
2023-05-14T04:12:32.117Z,19.80
2023-05-14T04:14:58.655Z,19.73
2023-05-14T04:17:25.766Z,17.60
2023-05-14T04:19:52.301Z,24.15
2023-05-14T04:22:18.811Z,19.23
2023-05-14T04:24:45.990Z,18.25
2023-05-14T04:27:19.536Z,20.15
2023-05-14T04:29:46.059Z,21.85
2023-05-14T04:32:12.429Z,17.95
2023-05-14T04:34:39.974Z,20.48
2023-05-14T04:37:06.441Z,18.08
2023-05-14T04:39:32.855Z,16.15
2023-05-14T04:41:59.296Z,15.98
2023-05-14T04:44:26.252Z,15.60
2023-05-14T04:46:52.663Z,15.20
2023-05-14T04:49:19.199Z,14.98
2023-05-14T04:51:45.917Z,14.23
2023-05-14T04:54:12.347Z,14.50
2023-05-14T04:56:38.769Z,13.85
2023-05-14T04:59:05.344Z,13.07
2023-05-14T05:01:31.867Z,13.10
2023-05-14T05:03:58.516Z,13.82
2023-05-14T05:06:24.945Z,13.20
2023-05-14T05:08:51.420Z,13.77
2023-05-14T05:11:18.036Z,13.25
2023-05-14T05:13:44.486Z,14.40
2023-05-14T05:16:11.015Z,13.02
2023-05-14T05:18:37.525Z,12.38
2023-05-14T05:21:03.940Z,11.95
2023-05-14T05:23:30.385Z,12.43
2023-05-14T05:25:56.929Z,12.45
2023-05-14T05:28:23.406Z,11.07
2023-05-14T05:30:49.826Z,10.38
2023-05-14T05:33:16.357Z,10.90
2023-05-14T05:35:44.515Z,11.05
2023-05-14T05:38:12.069Z,10.07
2023-05-14T05:40:38.433Z,10.75
2023-05-14T05:43:04.841Z,9.10
2023-05-14T05:45:32.473Z,9.05
2023-05-14T05:47:59.260Z,8.80
2023-05-14T05:50:26.275Z,9.15
2023-05-14T05:52:53.004Z,9.30
2023-05-14T05:55:20.705Z,8.30
2023-05-14T05:57:47.142Z,8.43
2023-05-14T06:00:15.334Z,8.52
2023-05-14T06:02:42.048Z,7.97
2023-05-14T06:05:09.956Z,7.82
2023-05-14T06:07:36.763Z,7.75
2023-05-14T06:10:03.465Z,7.13
2023-05-14T06:12:30.044Z,7.15
2023-05-14T06:14:57.922Z,8.23
2023-05-14T06:17:25.484Z,7.18
2023-05-14T06:19:52.679Z,6.07
2023-05-14T06:22:19.532Z,6.68
2023-05-14T06:24:46.086Z,6.65
2023-05-14T06:27:12.661Z,6.32
2023-05-14T06:29:40.401Z,7.00
2023-05-14T06:32:07.906Z,6.32
2023-05-14T06:34:34.379Z,7.53
2023-05-14T06:37:04.261Z,6.65
2023-05-14T06:39:30.830Z,6.25
2023-05-14T06:41:57.220Z,6.07
2023-05-14T06:44:23.672Z,7.82
2023-05-14T06:46:53.106Z,5.97
2023-05-14T06:49:19.518Z,6.80
2023-05-14T06:51:47.345Z,6.70
2023-05-14T06:54:13.793Z,6.38
2023-05-14T06:56:42.305Z,6.63
2023-05-14T06:59:08.715Z,6.45
2023-05-14T07:01:35.102Z,6.57
2023-05-14T07:04:01.707Z,5.82
2023-05-14T07:06:30.261Z,6.80
2023-05-14T07:08:56.698Z,5.45
2023-05-14T07:11:23.384Z,5.95
2023-05-14T07:13:52.014Z,5.93
2023-05-14T07:16:18.804Z,5.65
2023-05-14T07:18:46.289Z,5.70
2023-05-14T07:21:12.717Z,5.57
2023-05-14T07:23:39.134Z,5.78
2023-05-14T07:26:07.676Z,4.95
2023-05-14T07:28:34.614Z,5.40
2023-05-14T07:31:01.247Z,6.03
2023-05-14T07:33:27.896Z,5.25
2023-05-14T07:35:55.402Z,7.72
2023-05-14T07:38:24.979Z,5.07
2023-05-14T07:40:51.393Z,5.50
2023-05-14T07:43:17.827Z,6.43
2023-05-14T07:45:44.403Z,5.30
2023-05-14T07:48:11.267Z,5.28
2023-05-14T07:50:38.078Z,5.15
2023-05-14T07:53:04.554Z,4.90
2023-05-14T07:55:31.457Z,5.32
2023-05-14T07:57:57.939Z,6.72
2023-05-14T08:00:24.574Z,5.93
2023-05-14T08:02:51.856Z,5.60
2023-05-14T08:05:18.584Z,5.10
2023-05-14T08:07:45.023Z,5.72
2023-05-14T08:10:11.583Z,4.55
2023-05-14T08:12:38.869Z,4.85
2023-05-14T08:15:07.726Z,4.22
2023-05-14T08:17:34.155Z,5.65
2023-05-14T08:20:00.632Z,5.72
2023-05-14T08:22:27.116Z,4.57
2023-05-14T08:24:54.912Z,4.78
2023-05-14T08:27:21.562Z,4.75
2023-05-14T08:29:48.050Z,5.68
2023-05-14T08:32:22.742Z,4.50
2023-05-14T08:34:49.561Z,3.85
2023-05-14T08:37:16.142Z,5.97
2023-05-14T08:39:42.708Z,5.38
2023-05-14T08:42:12.917Z,6.32
2023-05-14T08:44:53.670Z,5.75
2023-05-14T08:47:23.924Z,4.30
2023-05-14T08:50:11.363Z,4.60
2023-05-14T08:52:38.104Z,4.22
2023-05-14T08:55:05.681Z,4.63
2023-05-14T08:57:33.166Z,5.55
2023-05-14T09:00:00.433Z,6.03
2023-05-14T09:02:31.732Z,4.85
2023-05-14T09:05:01.538Z,4.55
2023-05-14T09:07:28.387Z,4.45
2023-05-14T09:09:55.313Z,4.80
2023-05-14T09:12:22.586Z,5.47
2023-05-14T09:14:49.873Z,4.75
2023-05-14T09:17:16.950Z,4.78
2023-05-14T09:19:44.334Z,5.00
2023-05-14T09:22:25.283Z,3.72
2023-05-14T09:25:06.134Z,5.05
2023-05-14T09:27:33.473Z,4.03
2023-05-14T09:30:13.137Z,4.25
2023-05-14T09:32:40.935Z,5.45
2023-05-14T09:35:21.285Z,4.25
2023-05-14T09:37:49.675Z,4.28
2023-05-14T09:40:17.277Z,5.25
2023-05-14T09:42:43.820Z,3.70
2023-05-14T09:45:10.889Z,4.57
2023-05-14T09:47:38.528Z,5.80
2023-05-14T09:50:05.956Z,4.35
2023-05-14T09:52:32.852Z,5.15
2023-05-14T09:55:01.071Z,4.43
2023-05-14T09:57:27.726Z,4.95
2023-05-14T09:59:54.180Z,4.88
2023-05-14T10:02:36.756Z,5.55
2023-05-14T10:05:06.461Z,5.05
2023-05-14T10:07:48.210Z,4.45
2023-05-14T10:10:24.268Z,4.65
2023-05-14T10:12:58.969Z,5.70
2023-05-14T10:15:49.137Z,5.38
2023-05-14T10:18:22.857Z,5.03
2023-05-14T10:20:57.205Z,5.25
2023-05-14T10:23:23.928Z,4.97
2023-05-14T10:25:50.586Z,10.35
2023-05-14T10:28:17.024Z,5.25
2023-05-14T10:30:46.925Z,4.55
2023-05-14T10:33:18.791Z,6.05
2023-05-14T10:36:05.738Z,6.05
2023-05-14T10:38:34.469Z,4.80
2023-05-14T10:41:06.034Z,8.90
2023-05-14T10:43:38.458Z,9.63
2023-05-14T10:46:05.293Z,6.88
2023-05-14T10:48:33.068Z,6.75
2023-05-14T10:50:59.735Z,4.57
2023-05-14T10:53:34.594Z,7.45
2023-05-14T10:56:12.168Z,4.32
2023-05-14T10:58:40.682Z,7.28
2023-05-14T11:01:08.347Z,4.15
2023-05-14T11:03:44.338Z,5.55
2023-05-14T11:06:13.167Z,6.15
2023-05-14T11:08:40.993Z,6.18
2023-05-14T11:11:09.452Z,7.85
2023-05-14T11:13:36.087Z,7.03
2023-05-14T11:16:15.166Z,6.88
2023-05-14T11:21:21.127Z,6.10
2023-05-14T11:23:48.180Z,5.03
2023-05-14T11:26:14.632Z,6.07
2023-05-14T11:28:41.243Z,5.53
2023-05-14T11:31:07.700Z,5.65
2023-05-14T11:33:34.104Z,4.88
2023-05-14T11:36:00.525Z,7.18
2023-05-14T11:38:26.922Z,5.97
2023-05-14T11:40:54.908Z,6.82
2023-05-14T11:43:23.831Z,6.32
2023-05-14T11:45:52.119Z,5.85
2023-05-14T11:48:22.105Z,15.82
2023-05-14T11:53:24.789Z,4.40
2023-05-14T11:55:54.168Z,4.97
2023-05-14T11:58:21.793Z,7.32
2023-05-14T12:00:55.511Z,6.40
2023-05-14T12:03:25.931Z,5.30
2023-05-14T12:05:59.801Z,5.70
2023-05-14T12:08:29.354Z,5.80
2023-05-14T12:10:56.140Z,14.05
2023-05-14T12:13:26.493Z,5.93
2023-05-14T12:15:58.021Z,5.18
2023-05-14T12:18:26.033Z,5.65
2023-05-14T12:20:52.767Z,5.10
2023-05-14T12:23:32.520Z,6.32
2023-05-14T12:26:03.851Z,5.70
2023-05-14T12:28:30.527Z,5.20
2023-05-14T12:30:57.679Z,5.28
2023-05-14T12:33:26.424Z,8.07
2023-05-14T12:36:10.083Z,11.45
2023-05-14T12:38:41.303Z,5.70
2023-05-14T12:41:07.736Z,5.40
2023-05-14T12:43:34.109Z,7.22
2023-05-14T12:46:00.713Z,5.82
2023-05-14T12:48:27.114Z,5.60
2023-05-14T12:50:53.482Z,7.00
2023-05-14T12:53:19.858Z,4.50
2023-05-14T12:55:46.774Z,4.55
2023-05-14T12:58:13.178Z,4.63
2023-05-14T13:00:39.701Z,6.53
2023-05-14T13:03:06.155Z,4.35
2023-05-14T13:05:33.293Z,4.93
2023-05-14T13:08:03.534Z,5.25
2023-05-14T13:10:30.589Z,4.90
2023-05-14T13:12:58.205Z,6.15
2023-05-14T13:15:24.967Z,4.22
2023-05-14T13:17:51.689Z,4.30
2023-05-14T13:20:18.422Z,5.43
2023-05-14T13:22:45.055Z,5.32
2023-05-14T13:25:11.503Z,4.78
2023-05-14T13:27:37.929Z,5.40
2023-05-14T13:30:04.556Z,5.35
2023-05-14T13:32:31.099Z,5.57
2023-05-14T13:34:58.556Z,9.32
2023-05-14T13:37:25.611Z,5.80
2023-05-14T13:39:52.016Z,5.45
2023-05-14T13:42:18.337Z,4.82
2023-05-14T13:44:44.723Z,5.85
2023-05-14T13:47:11.096Z,5.80
2023-05-14T13:49:37.462Z,6.68
2023-05-14T13:52:04.195Z,9.38
2023-05-14T13:54:30.635Z,5.72
2023-05-14T13:56:56.986Z,5.00
2023-05-14T13:59:23.911Z,4.90
2023-05-14T14:01:51.532Z,9.65
2023-05-14T14:04:18.167Z,10.68
2023-05-14T14:06:44.515Z,4.88
2023-05-14T14:09:12.617Z,5.60
2023-05-14T14:11:39.506Z,4.95
2023-05-14T14:14:05.930Z,6.43
2023-05-14T14:16:32.671Z,4.82
2023-05-14T14:18:59.547Z,5.25
2023-05-14T14:21:25.967Z,6.95
2023-05-14T14:23:52.413Z,7.13
2023-05-14T14:26:18.867Z,4.97
2023-05-14T14:28:45.556Z,4.78
2023-05-14T14:31:12.065Z,4.93
2023-05-14T14:33:38.515Z,4.13
2023-05-14T14:36:05.924Z,4.78
2023-05-14T14:38:32.425Z,3.72
2023-05-14T14:40:58.898Z,4.50
2023-05-14T14:43:25.263Z,3.72
2023-05-14T14:45:51.708Z,5.50
2023-05-14T14:48:33.776Z,4.43
2023-05-14T14:51:03.620Z,5.97
2023-05-14T14:55:57.502Z,4.07
2023-05-14T14:58:24.765Z,4.50
2023-05-14T15:00:56.035Z,5.95
2023-05-14T15:03:23.715Z,4.05
2023-05-14T15:05:51.715Z,5.97
2023-05-14T15:08:18.181Z,3.72
2023-05-14T15:10:45.069Z,5.93
2023-05-14T15:13:12.472Z,5.07
2023-05-14T15:15:38.908Z,4.65
2023-05-14T15:18:05.690Z,4.95
2023-05-14T15:20:32.219Z,4.47
2023-05-14T15:22:58.691Z,4.80
2023-05-14T15:25:26.376Z,4.53
2023-05-14T15:27:53.023Z,4.78
2023-05-14T15:30:19.653Z,4.50
2023-05-14T15:32:46.691Z,4.55
2023-05-14T15:35:13.244Z,5.10
2023-05-14T15:37:41.876Z,5.85
2023-05-14T15:40:09.321Z,5.10
2023-05-14T15:42:43.937Z,6.28
2023-05-14T15:45:12.507Z,5.10
2023-05-14T15:47:39.736Z,5.40
2023-05-14T15:50:07.084Z,6.03
2023-05-14T15:52:34.109Z,5.45
2023-05-14T15:55:00.853Z,5.07
2023-05-14T15:57:27.611Z,5.55
2023-05-14T15:59:54.347Z,4.45
2023-05-14T16:02:20.785Z,4.85
2023-05-14T16:04:48.752Z,6.07
2023-05-14T16:07:15.665Z,5.70
2023-05-14T16:09:45.540Z,5.10
2023-05-14T16:12:12.474Z,4.93
2023-05-14T16:14:41.990Z,3.85
2023-05-14T16:17:08.874Z,5.07
2023-05-14T16:19:35.313Z,4.95
2023-05-14T16:22:01.742Z,4.97
2023-05-14T16:24:28.297Z,6.88
2023-05-14T16:26:55.348Z,4.15
2023-05-14T16:29:22.288Z,4.80
2023-05-14T16:31:48.739Z,10.43
2023-05-14T16:34:15.337Z,4.50
2023-05-14T16:36:41.861Z,4.45
2023-05-14T16:39:08.714Z,4.53
2023-05-14T16:41:38.302Z,4.30
2023-05-14T16:44:04.831Z,5.45
2023-05-14T16:46:31.494Z,4.22
2023-05-14T16:48:57.940Z,5.53
2023-05-14T16:51:24.413Z,4.28
2023-05-14T16:53:51.907Z,5.28
2023-05-14T16:56:18.580Z,4.68
2023-05-14T16:58:45.035Z,5.05
2023-05-14T17:01:11.528Z,5.25
2023-05-14T17:03:39.018Z,4.82
2023-05-14T17:06:05.804Z,4.47
2023-05-14T17:08:33.655Z,15.30
2023-05-14T17:11:00.283Z,4.63
2023-05-14T17:13:26.787Z,6.18
2023-05-14T17:15:53.286Z,5.15
2023-05-14T17:18:19.783Z,4.22
2023-05-14T17:20:46.392Z,4.15
2023-05-14T17:23:13.005Z,4.40
2023-05-14T17:25:39.442Z,6.13
2023-05-14T17:28:05.997Z,4.50
2023-05-14T17:30:32.598Z,4.70
2023-05-14T17:32:59.112Z,5.07
2023-05-14T17:35:25.959Z,5.75
2023-05-14T17:37:52.498Z,5.78
2023-05-14T17:40:20.945Z,4.70
2023-05-14T17:42:47.393Z,4.60
2023-05-14T17:45:20.570Z,4.25
2023-05-14T17:47:48.623Z,6.03
2023-05-14T17:50:15.135Z,4.35
2023-05-14T17:52:46.035Z,4.30
2023-05-14T17:55:12.463Z,4.18
2023-05-14T17:57:43.380Z,4.53
2023-05-14T18:00:10.341Z,5.10
2023-05-14T18:02:36.754Z,4.28
2023-05-14T18:05:03.711Z,5.18
2023-05-14T18:07:30.914Z,6.15
2023-05-14T18:09:57.884Z,6.10
2023-05-14T18:12:27.498Z,4.93
2023-05-14T18:14:54.232Z,6.15
2023-05-14T18:17:20.795Z,6.28
2023-05-14T18:19:47.256Z,8.18
2023-05-14T18:22:16.059Z,8.48
2023-05-14T18:24:44.223Z,6.22
2023-05-14T18:27:11.049Z,5.65
2023-05-14T18:29:37.484Z,5.68
2023-05-14T18:32:04.134Z,6.10
2023-05-14T18:34:30.579Z,6.15
2023-05-14T18:36:57.629Z,6.13
2023-05-14T18:39:23.985Z,5.80
2023-05-14T18:41:50.361Z,6.53
2023-05-14T18:44:16.901Z,8.52
2023-05-14T18:46:43.480Z,6.80
2023-05-14T18:49:09.936Z,5.80
2023-05-14T18:51:36.332Z,6.07
2023-05-14T18:54:02.772Z,6.72
2023-05-14T18:56:29.253Z,6.20
2023-05-14T18:58:55.737Z,9.20
2023-05-14T19:01:25.204Z,6.70
2023-05-14T19:03:59.580Z,6.87
2023-05-14T19:06:26.245Z,7.45
2023-05-14T19:08:52.703Z,6.05
2023-05-14T19:11:19.177Z,6.65
2023-05-14T19:13:49.628Z,6.10
2023-05-14T19:16:16.189Z,8.35
2023-05-14T19:18:42.702Z,7.20
2023-05-14T19:21:09.096Z,6.53
2023-05-14T19:23:35.524Z,8.57
2023-05-14T19:26:01.973Z,7.07
2023-05-14T19:28:28.363Z,6.82
2023-05-14T19:30:54.795Z,7.28
2023-05-14T19:33:21.294Z,6.30
2023-05-14T19:35:47.724Z,7.18
2023-05-14T19:38:15.117Z,6.30
2023-05-14T19:40:42.985Z,7.50
2023-05-14T19:43:11.788Z,7.18
2023-05-14T19:45:39.413Z,6.22
2023-05-14T19:48:06.463Z,6.20
2023-05-14T19:50:33.380Z,6.78
2023-05-14T19:53:00.312Z,7.57
2023-05-14T19:55:26.902Z,6.40
2023-05-14T19:57:53.507Z,8.63
2023-05-14T20:00:20.046Z,6.22
2023-05-14T20:02:47.844Z,6.20
2023-05-14T20:05:15.478Z,6.70
2023-05-14T20:07:42.584Z,8.20
2023-05-14T20:10:09.628Z,6.57
2023-05-14T20:12:36.048Z,6.60
2023-05-14T20:15:02.501Z,6.28
2023-05-14T20:17:29.576Z,6.45
2023-05-14T20:19:56.390Z,7.70
2023-05-14T20:22:22.836Z,6.68
2023-05-14T20:24:49.248Z,10.20
2023-05-14T20:27:15.692Z,9.23
2023-05-14T20:29:42.222Z,7.57
2023-05-14T20:32:08.683Z,9.95
2023-05-14T20:34:35.102Z,8.57
2023-05-14T20:37:02.014Z,7.57
2023-05-14T20:39:28.418Z,8.25
2023-05-14T20:41:55.022Z,7.35
2023-05-14T20:44:21.431Z,8.43
2023-05-14T20:46:47.966Z,7.93
2023-05-14T20:49:14.462Z,8.60
2023-05-14T20:51:40.907Z,8.20
2023-05-14T20:54:07.365Z,8.30
2023-05-14T20:56:33.807Z,7.70
2023-05-14T20:59:00.245Z,8.73
2023-05-14T21:01:26.639Z,7.93
2023-05-14T21:03:53.192Z,8.45
2023-05-14T21:06:19.792Z,7.85
2023-05-14T21:08:46.174Z,7.35
2023-05-14T21:11:12.556Z,7.82
2023-05-14T21:13:38.960Z,7.70
2023-05-14T21:16:05.690Z,8.25
2023-05-14T21:18:32.900Z,7.70
2023-05-14T21:20:59.411Z,8.35
2023-05-14T21:23:25.865Z,7.40
2023-05-14T21:25:54.718Z,7.13
2023-05-14T21:28:24.144Z,9.85
2023-05-14T21:30:51.103Z,8.07
2023-05-14T21:33:17.583Z,7.82
2023-05-14T21:35:44.042Z,7.70
2023-05-14T21:38:10.593Z,7.68
2023-05-14T21:40:37.028Z,8.50
2023-05-14T21:43:03.519Z,9.75
2023-05-14T21:45:29.950Z,9.00
2023-05-14T21:47:56.428Z,9.02
2023-05-14T21:50:22.941Z,7.97
2023-05-14T21:52:49.365Z,8.63
2023-05-14T21:55:15.987Z,8.77
2023-05-14T21:57:42.431Z,9.55
2023-05-14T22:00:12.654Z,10.00
2023-05-14T22:02:39.455Z,8.93
2023-05-14T22:05:06.020Z,8.57
2023-05-14T22:07:32.953Z,8.65
2023-05-14T22:09:59.826Z,8.68
2023-05-14T22:12:26.818Z,8.77
2023-05-14T22:14:53.322Z,8.63
2023-05-14T22:17:19.753Z,9.30
2023-05-14T22:19:46.421Z,8.85
2023-05-14T22:22:12.812Z,9.57
2023-05-14T22:24:39.248Z,9.05
2023-05-14T22:27:05.703Z,10.55
2023-05-14T22:29:32.094Z,9.57
2023-05-14T22:31:58.530Z,9.10
2023-05-14T22:34:24.986Z,9.38
2023-05-14T22:36:51.423Z,10.07
2023-05-14T22:39:17.868Z,9.93
2023-05-14T22:41:44.388Z,12.82
2023-05-14T22:44:10.805Z,9.77
2023-05-14T22:46:37.283Z,10.07
2023-05-14T22:49:03.842Z,8.95
2023-05-14T22:51:30.220Z,9.73
2023-05-14T22:53:56.609Z,10.50
2023-05-14T22:56:23.096Z,9.15
2023-05-14T22:58:49.500Z,10.43
2023-05-14T23:01:15.949Z,9.20
2023-05-14T23:03:42.397Z,10.13
2023-05-14T23:06:08.828Z,9.50
2023-05-14T23:08:35.686Z,9.27
2023-05-14T23:11:02.134Z,10.40
2023-05-14T23:13:28.533Z,10.00
2023-05-14T23:15:55.024Z,9.18
2023-05-14T23:18:21.552Z,12.18
2023-05-14T23:20:48.872Z,10.30
2023-05-14T23:23:15.618Z,10.23
2023-05-14T23:25:42.052Z,11.77
2023-05-14T23:28:08.487Z,11.63
2023-05-14T23:30:34.961Z,10.13
2023-05-14T23:33:01.465Z,10.93
2023-05-14T23:35:28.025Z,11.23
2023-05-14T23:37:55.390Z,10.65
2023-05-14T23:40:21.999Z,14.15
2023-05-14T23:42:48.458Z,11.88
2023-05-14T23:45:14.904Z,13.18
2023-05-14T23:47:41.587Z,11.93
2023-05-14T23:50:08.509Z,11.30
2023-05-14T23:52:34.975Z,10.90
2023-05-14T23:55:01.443Z,11.75
2023-05-14T23:57:27.948Z,14.10
2023-05-14T23:59:54.389Z,12.80
